createdAt,value
2022-08-04T00:06:28.090Z,996.47
2022-08-04T00:35:42.776Z,996.59
2022-08-04T01:05:02.890Z,996.73
2022-08-04T01:34:18.766Z,996.73
2022-08-04T02:04:19.058Z,996.7
2022-08-04T02:32:22.539Z,996.65
2022-08-04T03:01:57.228Z,996.68
2022-08-04T03:30:22.562Z,996.63
2022-08-04T03:59:49.273Z,996.67
2022-08-04T04:28:44.036Z,996.77
2022-08-04T04:57:13.188Z,996.93
2022-08-04T05:26:16.251Z,997.1
2022-08-04T05:55:58.692Z,997.17
2022-08-04T06:24:29.084Z,997.2
2022-08-04T06:53:52.238Z,997.19
2022-08-04T07:23:24.632Z,997.18
2022-08-04T07:53:22.638Z,997.16
2022-08-04T08:21:58.695Z,997.12
2022-08-04T08:50:26.958Z,997.02
2022-08-04T09:19:53.323Z,996.95
2022-08-04T09:49:23.782Z,996.82
2022-08-04T10:18:52.324Z,996.6
2022-08-04T10:48:35.313Z,996.37
2022-08-04T11:17:00.689Z,996.2
2022-08-04T11:46:32.372Z,995.99
2022-08-04T12:15:53.515Z,995.87
2022-08-04T12:45:13.057Z,995.61
2022-08-04T13:14:28.606Z,995.44
2022-08-04T13:43:48.343Z,995.08
2022-08-04T14:12:37.383Z,994.89
2022-08-04T14:40:42.762Z,994.53
2022-08-04T15:10:05.982Z,994.48
2022-08-04T15:39:49.947Z,994.26
2022-08-04T16:08:58.651Z,993.96
2022-08-04T16:38:09.066Z,993.88
2022-08-04T17:07:24.820Z,993.73
2022-08-04T17:36:47.933Z,993.56
2022-08-04T18:05:54.145Z,993.75
2022-08-04T18:34:04.385Z,993.92
2022-08-04T19:03:24.337Z,994.06
2022-08-04T19:31:59.914Z,994.33
2022-08-04T20:00:57.244Z,994.65
2022-08-04T20:30:19.382Z,994.81
2022-08-04T20:59:10.408Z,994.95
2022-08-04T21:28:04.910Z,995.07
2022-08-04T21:56:33.898Z,995.18
2022-08-04T22:25:58.713Z,995.8
2022-08-04T22:54:45.786Z,996
2022-08-04T23:23:55.604Z,996.02
2022-08-04T23:52:31.160Z,996.14
